createdAt,value
2019-05-15T00:00:51.100Z,57.40
2019-05-15T00:03:21.433Z,57.30
2019-05-15T00:05:50.763Z,57.20
2019-05-15T00:08:20.154Z,57.10
2019-05-15T00:10:49.494Z,57.10
2019-05-15T00:13:18.832Z,57.20
2019-05-15T00:15:48.284Z,57.80
2019-05-15T00:18:18.500Z,57.20
2019-05-15T00:20:49.660Z,57.30
2019-05-15T00:23:19.042Z,57.20
2019-05-15T00:25:48.878Z,57.30
2019-05-15T00:28:18.630Z,57.40
2019-05-15T00:30:48.245Z,57.50
2019-05-15T00:33:19.348Z,57.60
2019-05-15T00:35:48.768Z,57.60
2019-05-15T00:38:18.650Z,57.60
2019-05-15T00:40:49.538Z,57.80
2019-05-15T00:43:19.122Z,57.80
2019-05-15T00:45:48.888Z,57.80
2019-05-15T00:48:18.501Z,57.80
2019-05-15T00:50:48.590Z,57.80
2019-05-15T00:53:19.582Z,57.90
2019-05-15T00:55:49.100Z,58.00
2019-05-15T00:58:19.889Z,58.10
2019-05-15T01:00:49.350Z,58.10
2019-05-15T01:03:18.625Z,58.30
2019-05-15T01:05:48.216Z,58.40
2019-05-15T01:08:19.178Z,58.40
2019-05-15T01:10:48.957Z,58.30
2019-05-15T01:13:19.039Z,58.10
2019-05-15T01:15:48.937Z,58.20
2019-05-15T01:18:18.838Z,58.20
2019-05-15T01:20:49.372Z,58.40
2019-05-15T01:23:22.037Z,58.40
2019-05-15T01:25:54.974Z,58.50
2019-05-15T01:28:24.241Z,58.60
2019-05-15T01:30:53.439Z,58.50
2019-05-15T01:33:22.739Z,58.50
2019-05-15T01:35:51.929Z,58.60
2019-05-15T01:38:21.147Z,58.60
2019-05-15T01:40:50.447Z,58.60
2019-05-15T01:43:19.782Z,58.60
2019-05-15T01:45:49.087Z,58.80
2019-05-15T01:48:19.084Z,59.00
2019-05-15T01:50:49.305Z,59.60
2019-05-15T01:53:18.866Z,59.20
2019-05-15T01:55:48.479Z,59.20
2019-05-15T01:58:18.648Z,59.10
2019-05-15T02:00:48.504Z,59.00
2019-05-15T02:03:18.422Z,59.10
2019-05-15T02:05:48.192Z,59.30
2019-05-15T02:08:19.055Z,59.40
2019-05-15T02:10:49.468Z,59.30
2019-05-15T02:13:19.295Z,59.40
2019-05-15T02:15:48.498Z,59.30
2019-05-15T02:18:19.136Z,59.20
2019-05-15T02:20:49.345Z,59.80
2019-05-15T02:23:19.054Z,59.40
2019-05-15T02:25:48.436Z,59.30
2019-05-15T02:28:18.426Z,59.40
2019-05-15T02:30:50.475Z,59.60
2019-05-15T02:33:19.073Z,59.50
2019-05-15T02:35:50.223Z,59.50
2019-05-15T02:38:20.151Z,59.50
2019-05-15T02:40:49.647Z,59.60
2019-05-15T02:43:19.250Z,59.80
2019-05-15T02:45:50.865Z,60.00
2019-05-15T02:48:20.096Z,60.90
2019-05-15T02:50:50.220Z,60.20
2019-05-15T02:53:19.716Z,60.20
2019-05-15T02:55:49.700Z,60.30
2019-05-15T02:58:21.495Z,60.20
2019-05-15T03:00:53.310Z,61.10
2019-05-15T03:03:21.010Z,60.30
2019-05-15T03:05:50.395Z,60.20
2019-05-15T03:08:19.891Z,60.40
2019-05-15T03:10:49.991Z,60.70
2019-05-15T03:13:19.900Z,60.70
2019-05-15T03:15:49.317Z,60.60
2019-05-15T03:18:19.390Z,60.40
2019-05-15T03:20:50.167Z,60.50
2019-05-15T03:23:20.017Z,60.70
2019-05-15T03:25:49.673Z,61.00
2019-05-15T03:28:19.309Z,60.90
2019-05-15T03:31:14.313Z,60.80
2019-05-15T03:33:27.462Z,60.70
2019-05-15T03:35:54.542Z,61.00
2019-05-15T03:38:21.721Z,61.10
2019-05-15T03:40:50.945Z,61.20
2019-05-15T03:43:20.203Z,61.50
2019-05-15T03:45:49.660Z,61.30
2019-05-15T03:48:19.683Z,61.30
2019-05-15T03:50:49.380Z,61.30
2019-05-15T03:53:19.435Z,61.30
2019-05-15T03:55:49.279Z,61.20
2019-05-15T03:58:21.421Z,61.30
2019-05-15T04:00:49.960Z,61.30
2019-05-15T04:03:20.162Z,61.60
2019-05-15T04:05:49.787Z,61.60
2019-05-15T04:08:19.639Z,61.60
2019-05-15T04:10:49.192Z,61.20
2019-05-15T04:13:19.515Z,61.40
2019-05-15T04:15:50.208Z,61.40
2019-05-15T04:18:20.118Z,61.60
2019-05-15T04:20:49.603Z,61.70
2019-05-15T04:23:23.942Z,61.50
2019-05-15T04:25:52.391Z,61.50
2019-05-15T04:28:22.191Z,61.50
2019-05-15T04:30:51.826Z,61.90
2019-05-15T04:33:21.072Z,62.10
2019-05-15T04:35:50.616Z,61.80
2019-05-15T04:38:19.917Z,61.80
2019-05-15T04:40:50.110Z,61.80
2019-05-15T04:43:19.723Z,62.00
2019-05-15T04:45:49.921Z,62.10
2019-05-15T04:48:20.184Z,62.00
2019-05-15T04:50:49.972Z,61.80
2019-05-15T04:53:19.524Z,61.70
2019-05-15T04:55:49.319Z,61.90
2019-05-15T04:58:21.378Z,61.80
2019-05-15T05:00:52.472Z,61.60
2019-05-15T05:03:21.815Z,61.40
2019-05-15T05:05:51.507Z,61.20
2019-05-15T05:08:21.204Z,61.10
2019-05-15T05:10:50.594Z,61.20
2019-05-15T05:13:22.930Z,61.30
2019-05-15T05:15:54.965Z,61.30
2019-05-15T05:18:24.372Z,61.00
2019-05-15T05:20:53.628Z,61.00
2019-05-15T05:23:22.888Z,60.90
2019-05-15T05:25:52.160Z,61.00
2019-05-15T05:28:21.413Z,60.70
2019-05-15T05:30:50.686Z,60.70
2019-05-15T05:33:20.096Z,60.80
2019-05-15T05:35:49.395Z,60.50
2019-05-15T05:38:19.501Z,60.60
2019-05-15T05:40:50.015Z,60.20
2019-05-15T05:43:20.123Z,60.10
2019-05-15T05:45:49.661Z,60.00
2019-05-15T05:48:19.352Z,59.70
2019-05-15T05:50:49.915Z,59.60
2019-05-15T05:53:21.145Z,59.60
2019-05-15T05:55:53.267Z,59.50
2019-05-15T05:58:21.537Z,59.40
2019-05-15T06:00:51.274Z,59.30
2019-05-15T06:03:20.507Z,59.10
2019-05-15T06:05:50.048Z,58.80
2019-05-15T06:08:20.164Z,58.80
2019-05-15T06:10:52.827Z,58.70
2019-05-15T06:13:22.063Z,58.40
2019-05-15T06:15:51.441Z,58.40
2019-05-15T06:18:20.836Z,58.00
2019-05-15T06:20:50.241Z,57.80
2019-05-15T06:23:24.278Z,57.30
2019-05-15T06:25:51.735Z,56.60
2019-05-15T06:28:21.055Z,56.60
2019-05-15T06:30:50.345Z,56.30
2019-05-15T06:33:22.185Z,55.70
2019-05-15T06:35:52.791Z,55.60
2019-05-15T06:38:22.499Z,55.60
2019-05-15T06:40:51.749Z,55.50
2019-05-15T06:43:21.144Z,54.60
2019-05-15T06:45:50.592Z,54.10
2019-05-15T06:48:19.988Z,53.70
2019-05-15T06:50:49.499Z,53.50
2019-05-15T06:53:19.444Z,53.20
2019-05-15T06:55:49.126Z,52.60
2019-05-15T06:58:19.628Z,52.10
2019-05-15T07:00:49.532Z,51.60
2019-05-15T07:03:25.382Z,51.50
2019-05-15T07:05:51.088Z,50.80
2019-05-15T07:08:21.300Z,50.10
2019-05-15T07:10:50.594Z,48.80
2019-05-15T07:13:19.880Z,46.80
2019-05-15T07:15:49.774Z,46.20
2019-05-15T07:18:20.067Z,45.80
2019-05-15T07:20:50.083Z,45.30
2019-05-15T07:23:19.447Z,45.50
2019-05-15T07:25:49.809Z,44.80
2019-05-15T07:28:19.706Z,43.20
2019-05-15T07:30:49.717Z,41.90
2019-05-15T07:33:35.329Z,41.30
2019-05-15T07:35:50.245Z,40.90
2019-05-15T07:38:19.687Z,41.00
2019-05-15T07:40:57.041Z,40.60
2019-05-15T07:43:19.990Z,40.60
2019-05-15T07:45:54.226Z,40.40
2019-05-15T07:48:20.220Z,39.80
2019-05-15T07:50:50.077Z,39.80
2019-05-15T07:53:20.172Z,39.70
2019-05-15T07:55:51.215Z,39.40
2019-05-15T07:58:23.771Z,39.00
2019-05-15T08:00:53.089Z,39.40
2019-05-15T08:03:22.417Z,38.90
2019-05-15T08:05:59.220Z,38.20
2019-05-15T08:08:22.617Z,38.10
2019-05-15T08:10:54.343Z,38.40
2019-05-15T08:13:23.617Z,38.50
2019-05-15T08:15:52.980Z,37.70
2019-05-15T08:18:22.380Z,36.60
2019-05-15T08:20:51.651Z,36.80
2019-05-15T08:23:20.864Z,37.50
2019-05-15T08:25:50.110Z,36.70
2019-05-15T08:28:19.473Z,36.20
2019-05-15T08:30:49.693Z,36.20
2019-05-15T08:33:19.365Z,36.30
2019-05-15T08:35:52.132Z,35.20
2019-05-15T08:38:21.619Z,33.60
2019-05-15T08:40:50.808Z,33.10
2019-05-15T08:43:20.182Z,32.90
2019-05-15T08:45:49.956Z,32.40
2019-05-15T08:48:19.320Z,32.30
2019-05-15T08:50:49.097Z,30.20
2019-05-15T08:53:19.458Z,31.00
2019-05-15T08:55:49.256Z,31.60
2019-05-15T08:58:20.287Z,31.40
2019-05-15T09:00:52.281Z,31.00
2019-05-15T09:03:20.455Z,30.40
2019-05-15T09:05:49.776Z,29.90
2019-05-15T09:08:19.775Z,29.90
2019-05-15T09:10:50.207Z,30.00
2019-05-15T09:13:19.979Z,30.00
2019-05-15T09:15:49.463Z,29.90
2019-05-15T09:18:20.050Z,30.20
2019-05-15T09:20:49.956Z,30.00
2019-05-15T09:23:21.267Z,30.70
2019-05-15T09:25:50.473Z,30.00
2019-05-15T09:28:19.776Z,30.10
2019-05-15T09:30:49.160Z,31.20
2019-05-15T09:33:20.086Z,30.70
2019-05-15T09:35:49.467Z,29.70
2019-05-15T09:38:19.029Z,28.90
2019-05-15T09:40:50.301Z,29.40
2019-05-15T09:43:19.686Z,29.40
2019-05-15T09:45:49.483Z,29.60
2019-05-15T09:48:19.859Z,29.30
2019-05-15T09:50:49.935Z,29.80
2019-05-15T09:53:19.444Z,29.60
2019-05-15T09:55:49.638Z,29.60
2019-05-15T09:58:20.799Z,29.60
2019-05-15T10:00:52.614Z,29.40
2019-05-15T10:03:21.282Z,29.70
2019-05-15T10:05:50.536Z,29.90
2019-05-15T10:08:21.344Z,30.20
2019-05-15T10:10:51.031Z,29.60
2019-05-15T10:13:20.343Z,29.90
2019-05-15T10:15:51.054Z,29.40
2019-05-15T10:18:20.606Z,29.40
2019-05-15T10:20:50.028Z,29.70
2019-05-15T10:23:22.000Z,29.30
2019-05-15T10:25:51.300Z,29.70
2019-05-15T10:28:20.620Z,28.00
2019-05-15T10:30:50.129Z,28.30
2019-05-15T10:33:20.478Z,28.60
2019-05-15T10:35:49.924Z,28.80
2019-05-15T10:38:19.581Z,28.40
2019-05-15T10:41:03.881Z,27.20
2019-05-15T10:43:21.235Z,28.40
2019-05-15T10:45:50.898Z,28.50
2019-05-15T10:48:21.467Z,28.70
2019-05-15T10:50:50.735Z,28.10
2019-05-15T10:53:20.256Z,27.40
2019-05-15T10:55:49.818Z,28.00
2019-05-15T10:58:22.112Z,28.70
2019-05-15T11:00:50.413Z,28.90
2019-05-15T11:03:20.200Z,28.30
2019-05-15T11:05:49.538Z,28.00
2019-05-15T11:08:19.237Z,28.10
2019-05-15T11:10:49.308Z,28.20
2019-05-15T11:13:19.326Z,27.70
2019-05-15T11:15:49.098Z,28.00
2019-05-15T11:18:18.814Z,27.40
2019-05-15T11:20:48.941Z,27.40
2019-05-15T11:23:20.169Z,27.60
2019-05-15T11:25:49.698Z,27.60
2019-05-15T11:28:18.961Z,27.40
2019-05-15T11:30:49.135Z,27.20
2019-05-15T11:33:19.084Z,27.30
2019-05-15T11:36:01.288Z,27.90
2019-05-15T11:38:19.690Z,27.10
2019-05-15T11:40:49.158Z,27.60
2019-05-15T11:43:19.783Z,28.20
2019-05-15T11:45:49.474Z,28.30
2019-05-15T11:48:20.632Z,28.60
2019-05-15T11:50:49.796Z,28.60
2019-05-15T11:53:19.430Z,27.00
2019-05-15T11:55:48.814Z,27.10
2019-05-15T11:58:19.020Z,27.40
2019-05-15T12:00:49.284Z,26.90
2019-05-15T12:03:19.234Z,27.20
2019-05-15T12:05:48.694Z,26.80
2019-05-15T12:08:18.565Z,26.60
2019-05-15T12:10:48.188Z,26.50
2019-05-15T12:13:18.891Z,26.00
2019-05-15T12:15:48.753Z,26.60
2019-05-15T12:18:18.263Z,27.00
2019-05-15T12:20:48.572Z,26.70
2019-05-15T12:23:18.244Z,26.00
2019-05-15T12:25:48.884Z,26.30
2019-05-15T12:28:18.418Z,26.80
2019-05-15T12:30:49.174Z,26.50
2019-05-15T12:33:18.835Z,26.20
2019-05-15T12:35:50.690Z,25.80
2019-05-15T12:38:19.138Z,25.40
2019-05-15T13:00:57.926Z,26.30
2019-05-15T13:03:29.009Z,26.30
2019-05-15T13:05:58.811Z,26.50
2019-05-15T13:08:29.144Z,25.80
2019-05-15T13:10:58.628Z,25.20
2019-05-15T13:13:28.485Z,25.10
2019-05-15T13:15:58.967Z,25.40
2019-05-15T13:18:28.679Z,25.40
2019-05-15T13:20:59.393Z,25.70
2019-05-15T13:23:29.409Z,25.30
2019-05-15T13:25:59.557Z,25.60
2019-05-15T13:28:29.322Z,26.50
2019-05-15T13:30:59.517Z,25.80
2019-05-15T13:33:29.226Z,25.20
2019-05-15T13:35:58.808Z,25.10
2019-05-15T13:38:28.931Z,25.00
2019-05-15T13:40:59.581Z,25.10
2019-05-15T13:43:29.172Z,26.00
2019-05-15T13:45:59.522Z,25.60
2019-05-15T13:48:29.623Z,25.40
2019-05-15T13:51:00.506Z,26.10
2019-05-15T13:53:29.797Z,25.80
2019-05-15T13:55:59.021Z,25.80
2019-05-15T13:58:28.432Z,24.70
2019-05-15T14:00:59.070Z,24.80
2019-05-15T14:03:28.782Z,24.20
2019-05-15T14:05:58.524Z,24.60
2019-05-15T14:08:28.717Z,24.70
2019-05-15T14:10:58.777Z,24.20
2019-05-15T14:13:28.888Z,24.30
2019-05-15T14:15:58.804Z,24.50
2019-05-15T14:18:28.611Z,24.50
2019-05-15T14:20:58.554Z,24.40
2019-05-15T14:23:29.570Z,23.90
2019-05-15T14:26:13.083Z,23.60
2019-05-15T14:28:30.106Z,23.00
2019-05-15T14:30:59.394Z,23.10
2019-05-15T14:33:29.338Z,22.50
2019-05-15T14:35:58.969Z,22.50
2019-05-15T14:38:29.100Z,22.60
2019-05-15T14:40:59.106Z,22.60
2019-05-15T14:43:29.763Z,22.70
2019-05-15T14:46:00.621Z,22.50
2019-05-15T14:48:30.008Z,21.90
2019-05-15T14:50:59.278Z,22.10
2019-05-15T14:53:29.468Z,22.10
2019-05-15T14:56:00.659Z,22.20
2019-05-15T14:58:29.918Z,22.20
2019-05-15T15:01:03.063Z,22.40
2019-05-15T15:03:30.232Z,22.70
2019-05-15T15:05:59.730Z,22.30
2019-05-15T15:08:32.199Z,22.70
2019-05-15T15:11:00.238Z,22.10
2019-05-15T15:13:29.843Z,21.70
2019-05-15T15:15:59.288Z,22.20
2019-05-15T15:18:28.553Z,22.60
2019-05-15T15:20:58.136Z,22.40
2019-05-15T15:23:28.400Z,22.20
2019-05-15T15:25:58.067Z,21.90
2019-05-15T15:28:27.700Z,22.00
2019-05-15T15:30:58.108Z,22.10
2019-05-15T15:33:28.859Z,22.10
2019-05-15T15:36:01.591Z,21.70
2019-05-15T15:38:40.565Z,21.50
2019-05-15T15:41:01.993Z,21.70
2019-05-15T15:43:31.413Z,21.50
2019-05-15T15:46:00.790Z,21.50
2019-05-15T15:48:30.094Z,21.40
2019-05-15T15:50:59.411Z,21.30
2019-05-15T15:53:28.907Z,21.20
2019-05-15T15:55:58.295Z,21.00
2019-05-15T15:58:28.954Z,20.80
2019-05-15T16:00:58.938Z,20.60
2019-05-15T16:03:28.783Z,20.50
2019-05-15T16:05:58.302Z,21.00
2019-05-15T16:08:28.558Z,21.00
2019-05-15T16:10:59.032Z,20.90
2019-05-15T16:13:29.194Z,21.00
2019-05-15T16:15:58.748Z,21.10
2019-05-15T16:18:28.932Z,20.80
2019-05-15T16:20:58.494Z,20.40
2019-05-15T16:23:28.331Z,20.30
2019-05-15T16:26:01.104Z,20.30
2019-05-15T16:28:29.447Z,20.80
2019-05-15T16:30:58.836Z,21.00
2019-05-15T16:33:28.531Z,21.00
2019-05-15T16:35:58.176Z,21.30
2019-05-15T16:38:28.422Z,21.50
2019-05-15T16:40:58.525Z,21.40
2019-05-15T16:43:28.621Z,21.30
2019-05-15T16:45:58.878Z,21.40
2019-05-15T16:48:29.309Z,21.60
2019-05-15T16:50:58.980Z,21.60
2019-05-15T16:53:29.000Z,21.50
2019-05-15T16:55:58.794Z,21.30
2019-05-15T16:58:29.640Z,21.30
2019-05-15T17:00:59.226Z,21.40
2019-05-15T17:03:29.001Z,21.50
2019-05-15T17:05:59.010Z,21.50
2019-05-15T17:08:30.394Z,21.50
2019-05-15T17:10:59.276Z,22.00
2019-05-15T17:13:28.885Z,21.90
2019-05-15T17:15:58.552Z,22.30
2019-05-15T17:18:28.025Z,22.50
2019-05-15T17:20:59.030Z,22.60
2019-05-15T17:23:28.260Z,22.70
2019-05-15T17:25:58.248Z,22.70
2019-05-15T17:28:28.978Z,23.30
2019-05-15T17:30:58.554Z,22.70
2019-05-15T17:33:28.846Z,22.80
2019-05-15T17:35:58.395Z,22.90
2019-05-15T17:38:29.211Z,23.00
2019-05-15T17:40:58.558Z,22.90
2019-05-15T17:43:28.717Z,22.80
2019-05-15T17:45:58.433Z,22.70
2019-05-15T17:48:28.861Z,22.80
2019-05-15T17:50:59.407Z,22.70
2019-05-15T17:53:29.052Z,22.80
2019-05-15T17:55:58.900Z,22.80
2019-05-15T17:58:28.827Z,23.00
2019-05-15T18:00:59.460Z,22.90
2019-05-15T18:03:29.381Z,22.90
2019-05-15T18:05:59.208Z,23.10
2019-05-15T18:08:28.902Z,23.20
2019-05-15T18:10:58.813Z,23.60
2019-05-15T18:13:28.785Z,23.80
2019-05-15T18:16:02.702Z,23.90
2019-05-15T18:18:29.638Z,24.40
2019-05-15T18:20:58.922Z,24.50
2019-05-15T18:23:28.231Z,24.60
2019-05-15T18:25:58.462Z,25.00
2019-05-15T18:28:27.889Z,25.40
2019-05-15T18:30:58.760Z,25.70
2019-05-15T18:33:28.453Z,26.00
2019-05-15T18:35:58.249Z,26.20
2019-05-15T18:38:28.912Z,26.40
2019-05-15T18:40:58.621Z,26.80
2019-05-15T18:43:28.384Z,27.30
2019-05-15T18:45:58.407Z,27.50
2019-05-15T18:48:28.901Z,27.40
2019-05-15T18:50:58.839Z,27.40
2019-05-15T18:53:28.611Z,27.80
2019-05-15T18:55:58.463Z,28.00
2019-05-15T18:58:27.833Z,28.30
2019-05-15T19:00:58.394Z,28.80
2019-05-15T19:03:28.053Z,28.30
2019-05-15T19:05:58.418Z,28.50
2019-05-15T19:08:28.347Z,28.70
2019-05-15T19:10:58.523Z,29.00
2019-05-15T19:13:28.392Z,29.20
2019-05-15T19:15:58.057Z,29.30
2019-05-15T19:18:27.991Z,29.40
2019-05-15T19:20:58.564Z,29.40
2019-05-15T19:23:28.313Z,29.50
2019-05-15T19:25:57.907Z,29.70
2019-05-15T19:28:28.552Z,29.90
2019-05-15T19:30:58.668Z,30.00
2019-05-15T19:33:36.460Z,30.50
2019-05-15T19:36:02.062Z,30.60
2019-05-15T19:38:30.329Z,30.90
2019-05-15T19:41:03.025Z,31.20
2019-05-15T19:43:31.560Z,31.30
2019-05-15T19:46:01.522Z,31.80
2019-05-15T19:48:31.314Z,31.80
2019-05-15T19:51:00.723Z,32.00
2019-05-15T19:53:30.054Z,31.90
2019-05-15T19:55:59.418Z,32.00
2019-05-15T19:58:29.202Z,32.00
2019-05-15T20:00:58.713Z,31.90
2019-05-15T20:03:28.376Z,32.20
2019-05-15T20:05:58.106Z,32.00
2019-05-15T20:08:27.952Z,32.00
2019-05-15T20:10:59.317Z,32.20
2019-05-15T20:13:29.151Z,32.20
2019-05-15T20:15:58.586Z,32.20
2019-05-15T20:18:28.022Z,32.20
2019-05-15T20:20:58.522Z,32.50
2019-05-15T20:23:28.902Z,32.80
2019-05-15T20:25:58.463Z,32.80
2019-05-15T20:28:28.604Z,32.80
2019-05-15T20:30:58.732Z,32.90
2019-05-15T20:33:29.960Z,32.90
2019-05-15T20:35:59.301Z,33.10
2019-05-15T20:38:29.123Z,33.40
2019-05-15T20:40:59.734Z,33.80
2019-05-15T20:43:29.281Z,34.10
2019-05-15T20:45:59.089Z,34.50
2019-05-15T20:48:29.028Z,34.80
2019-05-15T20:50:59.182Z,35.80
2019-05-15T20:53:29.676Z,35.50
2019-05-15T20:55:59.046Z,35.90
2019-05-15T20:58:28.388Z,36.30
2019-05-15T21:00:59.163Z,36.70
2019-05-15T21:03:28.774Z,37.20
2019-05-15T21:06:00.857Z,37.80
2019-05-15T21:08:29.122Z,38.20
2019-05-15T21:10:59.114Z,38.60
2019-05-15T21:13:29.824Z,38.90
2019-05-15T21:15:59.278Z,39.20
2019-05-15T21:18:29.088Z,39.60
2019-05-15T21:20:58.424Z,40.00
2019-05-15T21:23:28.497Z,40.30
2019-05-15T21:25:59.130Z,40.60
2019-05-15T21:28:30.074Z,41.00
2019-05-15T21:30:59.694Z,41.20
2019-05-15T21:33:29.307Z,41.50
2019-05-15T21:35:58.611Z,42.10
2019-05-15T21:38:28.742Z,42.00
2019-05-15T21:40:58.621Z,42.10
2019-05-15T21:43:28.305Z,42.30
2019-05-15T21:45:59.153Z,42.60
2019-05-15T21:48:28.890Z,42.70
2019-05-15T21:50:58.600Z,43.00
2019-05-15T21:53:28.713Z,43.10
2019-05-15T21:55:58.849Z,43.40
2019-05-15T21:58:28.501Z,43.50
2019-05-15T22:00:58.437Z,43.80
2019-05-15T22:03:28.738Z,43.90
2019-05-15T22:05:58.280Z,44.00
2019-05-15T22:08:27.908Z,44.20
2019-05-15T22:10:57.362Z,44.40
2019-05-15T22:13:28.594Z,44.70
2019-05-15T22:15:59.261Z,44.90
2019-05-15T22:18:28.991Z,45.20
2019-05-15T22:20:58.652Z,45.50
2019-05-15T22:23:28.175Z,45.60
2019-05-15T22:25:58.418Z,45.90
2019-05-15T22:28:28.309Z,46.10
2019-05-15T22:30:58.376Z,46.30
2019-05-15T22:33:28.425Z,46.50
2019-05-15T22:35:59.302Z,46.60
2019-05-15T22:38:29.000Z,46.90
2019-05-15T22:40:58.367Z,47.10
2019-05-15T22:43:28.826Z,47.30
2019-05-15T22:45:58.838Z,47.40
2019-05-15T22:48:31.029Z,47.50
2019-05-15T22:51:00.805Z,47.60
2019-05-15T22:53:30.497Z,47.70
2019-05-15T22:55:59.796Z,47.80
2019-05-15T22:58:29.158Z,47.90
2019-05-15T23:00:59.802Z,48.00
2019-05-15T23:03:29.257Z,48.10
2019-05-15T23:05:58.479Z,48.20
2019-05-15T23:08:29.077Z,48.20
2019-05-15T23:10:58.853Z,48.30
2019-05-15T23:13:28.659Z,48.60
2019-05-15T23:15:58.560Z,48.60
2019-05-15T23:18:28.081Z,48.90
2019-05-15T23:20:59.313Z,48.80
2019-05-15T23:23:28.582Z,48.90
2019-05-15T23:25:58.116Z,49.00
2019-05-15T23:28:28.104Z,49.30
2019-05-15T23:30:57.758Z,49.40
2019-05-15T23:33:28.228Z,49.50
2019-05-15T23:35:58.726Z,49.70
2019-05-15T23:38:28.170Z,49.90
2019-05-15T23:40:58.989Z,50.00
2019-05-15T23:43:28.491Z,50.10
2019-05-15T23:45:58.959Z,50.10
2019-05-15T23:48:28.566Z,50.20
2019-05-15T23:50:59.153Z,50.30
2019-05-15T23:53:28.942Z,50.30
2019-05-15T23:55:58.923Z,50.50
2019-05-15T23:58:29.110Z,50.50
